Time;durP1;ratioP1;P1;durP2;ratioP2;P2;SDS_P1;SDS_P2;PMS_P1;PMS_P2;Temp;Humidity;BMP_temperature;BMP_pressure;BME280_temperature;BME280_humidity;BME280_pressure;Samples;Min_cycle;Max_cycle;Signal;HPM_P1;HPM_P2
2022/05/19 00:02:23;;;;;;;7.35;4.10;;;;;;;15.83;59.01;94349.25;5089573;28;20408;-46
2022/05/19 00:04:50;;;;;;;6.50;4.27;;;;;;;15.62;60.59;94355.41;5090052;28;20050;-54
2022/05/19 00:07:18;;;;;;;5.30;3.85;;;;;;;15.67;59.02;94354.84;5090264;28;20062;-55
2022/05/19 00:09:44;;;;;;;8.05;4.07;;;;;;;15.65;59.53;94351.72;5093349;28;20040;-52
2022/05/19 00:12:18;;;;;;;5.20;3.40;;;;;;;15.66;58.37;94345.78;5094069;28;20044;-53
2022/05/19 00:14:44;;;;;;;5.93;4.18;;;;;;;15.55;59.83;94348.03;5092732;28;20760;-55
2022/05/19 00:17:11;;;;;;;9.57;4.00;;;;;;;15.51;59.70;94345.41;5093403;28;20146;-49
2022/05/19 00:19:38;;;;;;;41.70;26.88;;;;;;;15.53;59.46;94340.22;5093150;28;20036;-46
2022/05/19 00:22:06;;;;;;;8.85;5.45;;;;;;;15.38;60.45;94339.81;5093476;28;20108;-55
2022/05/19 00:24:33;;;;;;;5.30;4.22;;;;;;;15.27;61.51;94341.28;5092798;28;20120;-48
2022/05/19 00:27:00;;;;;;;7.68;4.47;;;;;;;14.83;63.53;94340.84;5093529;28;20048;-48
2022/05/19 00:29:27;;;;;;;6.33;4.30;;;;;;;14.75;63.36;94338.25;5112604;28;20061;-50
2022/05/19 00:31:55;;;;;;;7.18;4.30;;;;;;;14.93;62.79;94337.03;5110909;27;20042;-51
2022/05/19 00:34:22;;;;;;;6.93;4.15;;;;;;;14.86;62.94;94338.00;5112635;28;20067;-50
2022/05/19 00:36:59;;;;;;;7.10;4.50;;;;;;;14.64;64.27;94331.44;5113350;27;20050;-47
2022/05/19 00:39:27;;;;;;;6.30;4.38;;;;;;;14.66;64.00;94331.78;5113250;27;20502;-47
2022/05/19 00:44:41;;;;;;;6.38;4.20;;;;;;;14.80;63.70;94330.66;5112763;27;20049;-52
2022/05/19 00:47:13;;;;;;;7.72;4.60;;;;;;;14.81;63.71;94330.25;5113214;28;20415;-51
2022/05/19 00:49:44;;;;;;;25.55;16.40;;;;;;;14.84;63.33;94336.88;5112920;28;20564;-51
2022/05/19 00:52:24;;;;;;;7.25;4.80;;;;;;;14.82;63.69;94331.00;5113086;27;20047;-48
2022/05/19 00:55:07;;;;;;;7.50;5.40;;;;;;;14.77;63.93;94340.59;5112769;27;20044;-48
2022/05/19 00:57:45;;;;;;;8.60;5.00;;;;;;;14.62;64.57;94331.09;5108936;28;20043;-50
2022/05/19 01:00:15;;;;;;;6.30;4.55;;;;;;;14.61;64.18;94341.38;5092409;28;20048;-53
2022/05/19 01:03:00;;;;;;;7.15;4.00;;;;;;;14.56;64.06;94331.59;5092040;28;20032;-46
2022/05/19 01:05:33;;;;;;;5.72;3.72;;;;;;;14.49;63.97;94334.53;5092533;28;20478;-47
2022/05/19 01:08:10;;;;;;;6.03;4.07;;;;;;;14.37;64.60;94332.44;5092121;28;20048;-48
2022/05/19 01:10:37;;;;;;;6.43;4.30;;;;;;;14.39;64.37;94332.78;5092187;28;20391;-49
2022/05/19 01:13:05;;;;;;;6.68;4.10;;;;;;;14.39;64.39;94330.81;5092616;28;20047;-46
2022/05/19 01:15:34;;;;;;;6.13;3.72;;;;;;;14.34;64.53;94336.06;5091625;28;20044;-49
2022/05/19 01:18:02;;;;;;;6.57;4.15;;;;;;;14.30;64.95;94327.84;5092118;28;20477;-49
2022/05/19 01:20:29;;;;;;;6.27;4.00;;;;;;;14.31;64.94;94328.63;5090225;28;20058;-51
2022/05/19 01:23:14;;;;;;;5.53;4.32;;;;;;;14.37;64.93;94335.22;5091835;28;20032;-54
2022/05/19 01:25:57;;;;;;;5.70;4.22;;;;;;;14.34;64.89;94334.06;5091661;28;20682;-51
2022/05/19 01:28:25;;;;;;;6.38;4.55;;;;;;;14.35;64.44;94337.63;5091637;28;20069;-48
2022/05/19 01:30:52;;;;;;;8.65;5.57;;;;;;;14.28;64.80;94335.78;5091667;28;20047;-52
2022/05/19 01:33:18;;;;;;;7.20;4.37;;;;;;;14.08;65.66;94324.03;5090623;28;20048;-49
2022/05/19 01:35:45;;;;;;;6.63;4.40;;;;;;;14.00;66.18;94337.19;5092068;28;20048;-47
2022/05/19 01:38:30;;;;;;;6.63;4.43;;;;;;;14.06;66.20;94340.22;5091658;28;20044;-52
2022/05/19 01:41:06;;;;;;;7.15;3.88;;;;;;;14.08;65.90;94332.28;5091136;28;20153;-50
2022/05/19 01:43:48;;;;;;;6.28;4.40;;;;;;;14.10;65.69;94330.66;5091350;28;20044;-55
2022/05/19 01:46:24;;;;;;;6.80;4.30;;;;;;;14.08;65.70;94332.28;5092247;28;20041;-49
2022/05/19 01:48:56;;;;;;;6.50;4.28;;;;;;;14.07;65.19;94347.31;5095703;28;21556;-50
2022/05/19 01:51:45;;;;;;;7.53;4.00;;;;;;;14.06;64.99;94334.72;5101829;28;20446;-52
2022/05/19 01:54:35;;;;;;;7.00;4.07;;;;;;;14.02;65.38;94339.53;5100444;28;20044;-46
2022/05/19 01:57:12;;;;;;;6.53;4.30;;;;;;;13.91;65.65;94335.03;5102781;28;20066;-51
2022/05/19 02:00:03;;;;;;;6.70;4.10;;;;;;;13.94;65.91;94333.38;5099489;28;20036;-46
2022/05/19 02:03:12;;;;;;;5.55;4.10;;;;;;;13.90;65.55;94338.19;5101728;28;20052;-50
2022/05/19 02:06:10;;;;;;;6.68;4.30;;;;;;;13.84;65.62;94337.16;5099792;28;20052;-46
2022/05/19 02:09:00;;;;;;;7.35;4.40;;;;;;;13.81;66.02;94335.25;5102090;27;20050;-50
2022/05/19 02:11:31;;;;;;;6.70;4.30;;;;;;;13.72;66.68;94335.81;5072487;28;20048;-46
2022/05/19 02:14:03;;;;;;;7.70;4.10;;;;;;;13.61;66.52;94325.00;5103198;28;20070;-53
2022/05/19 02:16:30;;;;;;;6.20;4.10;;;;;;;13.64;66.88;94337.94;5100968;28;20404;-47
2022/05/19 02:18:58;;;;;;;6.32;4.35;;;;;;;13.59;66.93;94344.72;5099474;28;20048;-48
2022/05/19 02:21:27;;;;;;;7.93;4.50;;;;;;;13.57;67.06;94347.13;5099916;27;20048;-47
2022/05/19 02:24:01;;;;;;;7.32;4.40;;;;;;;13.44;67.53;94343.47;5105582;28;20036;-49
2022/05/19 02:26:38;;;;;;;7.13;5.00;;;;;;;13.34;68.28;94336.97;5111264;28;20502;-49
2022/05/19 02:29:12;;;;;;;7.03;4.82;;;;;;;13.32;68.04;94342.13;5117723;27;20051;-47
2022/05/19 02:31:43;;;;;;;7.95;4.70;;;;;;;13.33;68.12;94351.94;5109742;28;20043;-46
2022/05/19 02:34:10;;;;;;;7.38;4.28;;;;;;;13.32;68.24;94346.84;5127726;27;20051;-53
2022/05/19 02:36:38;;;;;;;6.45;4.75;;;;;;;13.33;68.47;94343.66;5131331;27;20036;-47
2022/05/19 02:39:05;;;;;;;8.50;4.83;;;;;;;13.31;68.61;94339.78;5131856;27;20061;-47
2022/05/19 02:41:32;;;;;;;7.45;5.30;;;;;;;13.19;69.14;94338.38;5110923;27;20051;-47
2022/05/19 02:43:59;;;;;;;7.35;4.80;;;;;;;13.16;69.31;94353.81;5117828;27;20040;-52
2022/05/19 02:46:25;;;;;;;6.95;4.80;;;;;;;13.17;68.98;94352.59;5112198;27;20035;-48
2022/05/19 02:48:52;;;;;;;8.70;5.45;;;;;;;13.17;69.10;94349.06;5131446;27;20479;-50
2022/05/19 02:51:19;;;;;;;7.90;5.27;;;;;;;13.13;69.36;94348.34;5130903;27;20047;-52
2022/05/19 02:53:46;;;;;;;9.88;5.60;;;;;;;13.14;69.93;94342.41;5101387;27;20089;-50
2022/05/19 02:56:12;;;;;;;7.90;5.38;;;;;;;13.07;70.00;94339.78;5090759;28;20075;-52
2022/05/19 02:58:39;;;;;;;9.70;6.05;;;;;;;13.05;70.42;94333.91;5105595;27;20039;-51
2022/05/19 03:01:07;;;;;;;8.52;5.40;;;;;;;13.02;70.46;94334.78;5114769;27;20042;-52
2022/05/19 03:03:34;;;;;;;7.13;5.23;;;;;;;13.00;70.14;94331.66;5121585;27;20043;-50
2022/05/19 03:06:01;;;;;;;8.38;5.50;;;;;;;12.99;70.30;94333.63;5131225;27;20107;-53
2022/05/19 03:08:27;;;;;;;8.38;5.32;;;;;;;12.91;70.21;94345.97;5130966;27;20047;-47
2022/05/19 03:10:54;;;;;;;10.35;5.90;;;;;;;12.67;71.62;94339.69;5131251;27;20065;-51
2022/05/19 03:13:23;;;;;;;9.05;5.90;;;;;;;12.61;71.74;94344.09;5130566;27;20115;-51
2022/05/19 03:15:50;;;;;;;9.13;5.47;;;;;;;12.60;72.08;94345.31;5131283;27;20035;-53
2022/05/19 03:18:17;;;;;;;8.45;5.90;;;;;;;12.59;72.29;94347.28;5130831;27;20035;-51
2022/05/19 03:20:45;;;;;;;9.68;6.07;;;;;;;12.64;72.05;94346.03;5130456;27;20056;-51
2022/05/19 03:23:12;;;;;;;9.52;6.10;;;;;;;12.70;71.89;94344.38;5129277;27;20041;-50
2022/05/19 03:25:39;;;;;;;8.32;6.13;;;;;;;12.65;71.95;94349.56;5089921;28;20040;-50
2022/05/19 03:28:06;;;;;;;9.80;6.57;;;;;;;12.51;72.77;94345.81;5089831;28;20393;-49
2022/05/19 03:30:32;;;;;;;9.43;6.47;;;;;;;12.58;72.48;94339.44;5089537;28;20048;-48
2022/05/19 03:32:59;;;;;;;9.88;6.20;;;;;;;12.61;72.52;94346.84;5090456;28;20032;-47
2022/05/19 03:35:26;;;;;;;10.43;6.22;;;;;;;12.62;72.26;94350.41;5088466;28;20055;-54
2022/05/19 03:37:58;;;;;;;15.90;8.23;;;;;;;12.67;72.21;94347.94;5090201;28;20207;-50
2022/05/19 03:40:25;;;;;;;16.27;8.93;;;;;;;12.66;72.39;94351.13;5089107;28;20048;-50
2022/05/19 03:42:52;;;;;;;16.77;8.40;;;;;;;12.67;72.08;94353.44;5091544;28;20052;-51
2022/05/19 03:45:18;;;;;;;16.35;8.43;;;;;;;12.63;72.72;94354.72;5094222;28;20052;-50
2022/05/19 03:47:45;;;;;;;22.27;10.98;;;;;;;12.54;73.34;94347.75;5094214;28;20042;-47
2022/05/19 03:50:12;;;;;;;20.15;9.70;;;;;;;12.60;72.94;94353.56;5093436;28;20036;-50
2022/05/19 03:52:41;;;;;;;17.57;10.23;;;;;;;12.62;72.63;94358.66;5093721;28;20044;-52
2022/05/19 03:55:11;;;;;;;25.42;15.30;;;;;;;12.61;72.56;94363.38;5094160;28;20044;-51
2022/05/19 03:57:38;;;;;;;19.00;10.68;;;;;;;12.68;72.96;94359.75;5093171;28;20044;-50
2022/05/19 04:00:07;;;;;;;16.20;9.57;;;;;;;12.62;73.26;94362.19;5093753;28;20066;-48
2022/05/19 04:02:34;;;;;;;14.82;9.00;;;;;;;12.53;73.29;94359.19;5093526;28;20052;-47
2022/05/19 04:05:03;;;;;;;16.20;8.73;;;;;;;12.63;73.23;94352.72;5093508;28;20067;-46
2022/05/19 04:07:30;;;;;;;12.77;8.35;;;;;;;12.79;72.77;94357.59;5091974;28;20060;-46
2022/05/19 04:09:57;;;;;;;12.55;7.95;;;;;;;12.91;72.44;94368.00;5093554;28;20149;-52
2022/05/19 04:12:24;;;;;;;11.90;7.40;;;;;;;12.89;71.86;94364.13;5092857;28;20504;-50
2022/05/19 04:14:51;;;;;;;11.20;7.47;;;;;;;12.73;72.93;94373.81;5093810;28;20143;-52
2022/05/19 04:17:18;;;;;;;12.03;6.93;;;;;;;12.84;72.44;94376.41;5093458;28;20036;-50
2022/05/19 04:19:44;;;;;;;10.45;7.32;;;;;;;12.89;72.01;94372.38;5092546;28;20046;-46
2022/05/19 04:22:11;;;;;;;12.50;7.57;;;;;;;12.89;72.42;94370.41;5092161;28;20050;-50
2022/05/19 04:24:38;;;;;;;12.27;7.60;;;;;;;13.08;71.75;94377.16;5092895;28;20048;-53
2022/05/19 04:27:05;;;;;;;11.00;7.43;;;;;;;13.20;70.91;94370.28;5093228;28;20078;-50
2022/05/19 04:29:32;;;;;;;9.63;6.80;;;;;;;13.27;70.57;94372.88;5112840;28;20043;-53
2022/05/19 04:31:58;;;;;;;10.48;6.97;;;;;;;13.19;70.89;94388.00;5112331;28;20040;-48
2022/05/19 04:34:25;;;;;;;10.73;7.22;;;;;;;13.36;70.56;94381.41;5112762;27;20047;-51
2022/05/19 04:36:52;;;;;;;19.77;11.35;;;;;;;13.50;70.10;94383.13;5113484;28;20426;-50
2022/05/19 04:39:20;;;;;;;11.50;8.10;;;;;;;13.69;69.38;94386.31;5094740;28;20149;-50
2022/05/19 04:41:46;;;;;;;11.60;6.93;;;;;;;13.76;69.17;94386.16;5112816;28;20032;-53
2022/05/19 04:44:13;;;;;;;11.05;7.10;;;;;;;13.88;68.86;94384.75;5112988;28;20051;-49
2022/05/19 04:46:40;;;;;;;9.77;7.20;;;;;;;13.49;69.88;94389.06;5123708;27;20432;-49
2022/05/19 04:49:07;;;;;;;10.85;7.30;;;;;;;13.40;70.88;94395.16;5133289;27;20065;-51
2022/05/19 04:51:34;;;;;;;11.57;7.75;;;;;;;13.29;71.58;94389.81;5132984;27;20070;-49
2022/05/19 04:54:00;;;;;;;12.90;7.77;;;;;;;13.21;71.74;94393.09;5133645;27;20409;-54
2022/05/19 04:56:28;;;;;;;11.90;7.40;;;;;;;13.54;70.35;94392.13;5132810;27;20047;-50
2022/05/19 04:58:55;;;;;;;12.93;7.07;;;;;;;13.63;70.21;94390.78;5133411;27;20495;-48
2022/05/19 05:01:22;;;;;;;12.60;8.00;;;;;;;13.41;71.47;94396.69;5114963;27;20052;-46
2022/05/19 05:03:48;;;;;;;12.80;8.07;;;;;;;13.54;70.55;94403.16;5098918;28;20123;-46
2022/05/19 05:06:15;;;;;;;12.83;8.07;;;;;;;13.49;71.47;94405.63;5092701;28;20060;-47
2022/05/19 05:08:42;;;;;;;13.05;7.97;;;;;;;13.71;70.45;94411.50;5091435;28;20234;-54
2022/05/19 05:11:09;;;;;;;11.70;7.88;;;;;;;13.88;70.26;94410.34;5106313;28;20074;-48
2022/05/19 05:13:35;;;;;;;11.85;7.93;;;;;;;13.86;70.14;94409.22;5112529;28;20047;-47
2022/05/19 05:16:02;;;;;;;11.35;8.15;;;;;;;14.02;69.65;94414.03;5113079;27;20051;-48
2022/05/19 05:18:29;;;;;;;11.57;7.90;;;;;;;14.28;68.88;94413.06;5106948;28;20501;-49
2022/05/19 05:20:56;;;;;;;13.35;8.02;;;;;;;14.14;69.15;94419.69;5073563;28;20059;-46
2022/05/19 05:23:23;;;;;;;11.25;7.70;;;;;;;14.40;68.60;94419.94;5072607;28;20037;-50
2022/05/19 05:25:49;;;;;;;13.15;8.18;;;;;;;14.75;67.71;94418.38;5090488;28;20446;-47
2022/05/19 05:28:16;;;;;;;12.77;8.02;;;;;;;15.18;66.61;94417.34;5080620;28;20056;-47
2022/05/19 05:30:43;;;;;;;14.50;7.50;;;;;;;15.15;66.24;94423.75;5084148;28;20040;-53
2022/05/19 05:33:10;;;;;;;12.75;7.75;;;;;;;15.57;65.29;94418.34;5091984;28;20048;-47
2022/05/19 05:35:39;;;;;;;12.85;7.90;;;;;;;17.34;59.79;94423.06;5090918;28;20040;-54
2022/05/19 05:38:06;;;;;;;11.65;7.10;;;;;;;19.78;52.69;94415.09;5081850;28;20089;-49
2022/05/19 05:40:36;;;;;;;10.50;6.90;;;;;;;20.78;49.29;94419.00;5071937;28;20036;-53
2022/05/19 05:43:11;;;;;;;10.23;6.40;;;;;;;21.61;46.91;94420.66;5070847;28;20036;-53
2022/05/19 05:45:38;;;;;;;10.30;7.00;;;;;;;23.04;44.52;94420.78;5069660;28;20812;-53
2022/05/19 05:48:05;;;;;;;9.30;6.68;;;;;;;22.90;43.59;94422.34;5070794;28;20047;-48
2022/05/19 05:50:32;;;;;;;9.13;6.75;;;;;;;23.53;42.37;94425.56;5070105;28;20052;-46
2022/05/19 05:52:59;;;;;;;11.13;7.03;;;;;;;23.85;42.05;94422.22;5070860;28;20041;-51
2022/05/19 05:55:26;;;;;;;9.00;6.00;;;;;;;24.58;39.86;94420.22;5070091;28;20053;-51
2022/05/19 05:57:53;;;;;;;9.00;5.90;;;;;;;25.56;37.93;94424.06;5070924;28;20338;-51
2022/05/19 06:00:20;;;;;;;6.80;5.10;;;;;;;26.59;35.94;94421.19;5070148;28;20074;-55
2022/05/19 06:02:49;;;;;;;7.68;5.15;;;;;;;26.22;36.01;94433.38;5071008;28;20074;-48
2022/05/19 06:05:16;;;;;;;7.47;5.45;;;;;;;25.79;36.72;94424.19;5070099;28;20060;-49
2022/05/19 06:07:44;;;;;;;7.53;5.23;;;;;;;25.21;37.65;94425.13;5090083;28;20066;-47
2022/05/19 06:10:12;;;;;;;8.32;5.00;;;;;;;25.40;37.65;94433.94;5090736;28;20054;-48
2022/05/19 06:12:38;;;;;;;7.25;5.00;;;;;;;24.81;38.57;94426.81;5105324;28;20043;-51
2022/05/19 06:15:06;;;;;;;9.95;5.55;;;;;;;25.10;37.67;94425.78;5090699;28;20078;-55
2022/05/19 06:17:33;;;;;;;8.82;5.00;;;;;;;25.91;36.59;94420.19;5090259;28;20048;-52
2022/05/19 06:20:00;;;;;;;10.23;5.20;;;;;;;26.01;36.22;94432.75;5090545;28;20100;-54
2022/05/19 06:22:27;;;;;;;7.55;5.00;;;;;;;26.54;35.49;94429.59;5089923;28;20381;-47
2022/05/19 06:24:54;;;;;;;7.57;5.53;;;;;;;25.38;37.28;94422.44;5081413;28;20039;-50
2022/05/19 06:27:20;;;;;;;7.50;5.30;;;;;;;25.91;36.75;94423.75;5086691;28;20052;-54
2022/05/19 06:29:47;;;;;;;8.15;5.10;;;;;;;25.34;37.84;94438.00;5078637;28;20036;-51
2022/05/19 06:32:14;;;;;;;7.67;4.90;;;;;;;27.01;35.61;94429.94;5086945;28;20052;-54
2022/05/19 06:34:41;;;;;;;7.53;4.72;;;;;;;27.91;33.66;94426.28;5085000;28;20514;-52
2022/05/19 06:37:07;;;;;;;7.07;5.00;;;;;;;26.38;36.57;94436.72;5078631;28;20041;-50
2022/05/19 06:39:34;;;;;;;8.27;4.63;;;;;;;26.60;35.33;94433.22;5086180;28;20397;-51
2022/05/19 06:42:01;;;;;;;6.30;4.80;;;;;;;27.98;33.83;94428.56;5078507;28;20041;-53
2022/05/19 06:44:37;;;;;;;7.97;4.40;;;;;;;28.29;32.44;94433.84;5086005;28;20044;-55
2022/05/19 06:47:13;;;;;;;8.43;4.82;;;;;;;28.81;31.81;94432.25;5078471;28;20032;-47
2022/05/19 06:49:42;;;;;;;6.25;4.57;;;;;;;28.67;32.67;94436.22;5086230;28;20151;-51
2022/05/19 06:52:14;;;;;;;8.30;4.55;;;;;;;28.07;32.98;94434.69;5078228;28;20044;-50
2022/05/19 06:54:49;;;;;;;8.82;4.90;;;;;;;27.65;34.17;94433.75;5113500;27;20101;-51
2022/05/19 06:57:16;;;;;;;6.10;4.30;;;;;;;28.54;33.25;94439.63;5082007;28;20439;-51
2022/05/19 06:59:43;;;;;;;6.47;4.38;;;;;;;28.97;32.34;94432.69;5072294;28;20827;-48
2022/05/19 07:02:10;;;;;;;5.47;4.35;;;;;;;28.59;32.79;94427.53;5080516;28;20040;-48
2022/05/19 07:04:38;;;;;;;6.22;4.15;;;;;;;29.54;30.91;94430.16;5080784;28;20058;-48
2022/05/19 07:07:06;;;;;;;7.05;4.20;;;;;;;30.89;29.43;94433.50;5081725;28;20504;-50
2022/05/19 07:09:35;;;;;;;7.23;4.40;;;;;;;30.17;29.75;94442.41;5080915;28;20074;-53
2022/05/19 07:12:03;;;;;;;7.63;4.28;;;;;;;29.52;31.19;94435.59;5081794;28;20052;-51
2022/05/19 07:14:32;;;;;;;5.00;4.20;;;;;;;30.02;30.27;94440.75;5080358;28;20056;-50
2022/05/19 07:16:59;;;;;;;5.47;4.30;;;;;;;31.41;28.80;94440.66;5081127;28;20044;-48
2022/05/19 07:22:16;;;;;;;6.97;4.30;;;;;;;29.96;31.04;94433.63;5081208;28;20056;-49
2022/05/19 07:24:49;;;;;;;5.70;3.92;;;;;;;31.01;29.29;94429.22;5068179;28;20829;-55
2022/05/19 07:27:16;;;;;;;7.13;4.15;;;;;;;31.13;29.34;94439.06;5069010;28;20064;-48
2022/05/19 07:29:43;;;;;;;5.65;4.25;;;;;;;31.78;28.37;94439.03;5069326;28;20040;-53
2022/05/19 07:32:15;;;;;;;6.22;4.10;;;;;;;32.10;27.88;94436.13;5069611;28;20404;-51
2022/05/19 07:34:43;;;;;;;4.97;4.00;;;;;;;32.21;27.59;94443.66;5068344;28;20779;-47
2022/05/19 07:37:11;;;;;;;6.93;4.30;;;;;;;31.98;28.10;94446.13;5068433;28;20049;-47
2022/05/19 07:39:38;;;;;;;9.32;6.90;;;;;;;31.79;28.37;94444.16;5068810;28;20469;-48
2022/05/19 07:42:05;;;;;;;6.97;4.30;;;;;;;32.75;27.14;94442.28;5069585;28;20078;-51
2022/05/19 07:44:32;;;;;;;5.90;4.10;;;;;;;33.89;26.40;94438.28;5048467;28;20043;-50
2022/05/19 07:46:59;;;;;;;7.57;4.27;;;;;;;33.35;26.63;94440.66;5049547;28;20375;-46
2022/05/19 07:49:26;;;;;;;5.50;4.25;;;;;;;33.18;26.80;94443.13;5048658;28;20102;-54
2022/05/19 07:51:53;;;;;;;5.75;4.10;;;;;;;33.87;26.95;94440.13;5049379;28;20041;-49
2022/05/19 07:54:22;;;;;;;4.70;3.80;;;;;;;34.16;25.95;94441.69;5047547;28;20063;-52
2022/05/19 07:56:49;;;;;;;5.38;4.10;;;;;;;35.07;24.93;94436.22;5049028;28;20098;-53
2022/05/19 07:59:16;;;;;;;6.13;3.80;;;;;;;35.20;24.39;94438.94;5049410;28;20118;-48
2022/05/19 08:01:45;;;;;;;5.35;3.75;;;;;;;35.43;23.72;94430.41;5056114;28;20810;-51
2022/05/19 08:04:18;;;;;;;6.47;3.97;;;;;;;36.20;22.89;94430.41;5048719;28;20098;-52
2022/05/19 08:06:46;;;;;;;6.30;3.60;;;;;;;35.63;23.64;94436.50;5049053;28;20049;-52
2022/05/19 08:11:59;;;;;;;6.13;3.60;;;;;;;35.69;24.15;94425.69;5048277;28;21562;-51
2022/05/19 08:17:29;;;;;;;5.30;3.50;;;;;;;34.37;25.61;94432.31;5048413;28;20522;-48
2022/05/19 08:19:56;;;;;;;5.55;3.58;;;;;;;35.81;23.64;94435.41;5048969;28;20690;-49
2022/05/19 08:22:23;;;;;;;5.85;3.60;;;;;;;37.14;21.71;94420.94;5048328;28;20064;-52
2022/05/19 08:24:50;;;;;;;6.07;3.77;;;;;;;35.03;24.08;94432.97;5063980;28;20070;-53
2022/05/19 08:27:18;;;;;;;6.55;3.80;;;;;;;34.30;25.33;94427.34;5068904;28;20040;-52
2022/05/19 08:29:44;;;;;;;5.65;3.70;;;;;;;36.14;22.88;94436.31;5071639;28;20033;-50
2022/05/19 08:32:11;;;;;;;4.95;3.60;;;;;;;38.44;20.30;94424.84;5079598;28;20043;-46
2022/05/19 08:34:38;;;;;;;4.97;3.25;;;;;;;38.91;19.19;94434.44;5081509;28;20040;-51
2022/05/19 08:37:06;;;;;;;6.50;3.40;;;;;;;40.15;18.57;94433.41;5072179;28;20059;-55
2022/05/19 08:39:32;;;;;;;5.60;3.40;;;;;;;40.30;17.12;94433.13;5071863;28;20053;-54
2022/05/19 08:42:03;;;;;;;4.95;3.13;;;;;;;38.57;18.46;94423.75;5071338;28;20036;-51
2022/05/19 08:44:32;;;;;;;4.65;2.90;;;;;;;38.55;18.55;94435.81;5071633;28;20045;-54
2022/05/19 08:47:02;;;;;;;7.45;3.47;;;;;;;37.58;19.13;94429.03;5072293;28;20113;-51
2022/05/19 08:49:41;;;;;;;6.23;3.03;;;;;;;38.53;18.80;94423.44;5071709;28;20055;-57
2022/05/19 08:52:27;;;;;;;5.55;3.30;;;;;;;37.23;19.69;94431.75;5072476;28;20400;-48
2022/05/19 08:54:56;;;;;;;5.18;3.10;;;;;;;37.23;20.00;94419.53;5070802;28;20049;-49
2022/05/19 08:57:32;;;;;;;5.70;3.10;;;;;;;37.91;18.80;94421.16;5071811;28;20070;-49
2022/05/19 09:00:10;;;;;;;5.47;3.20;;;;;;;37.56;19.32;94417.41;5072055;28;20405;-54
2022/05/19 09:02:42;;;;;;;5.97;3.20;;;;;;;37.30;19.34;94418.75;5069958;28;20047;-51
2022/05/19 09:05:34;;;;;;;5.55;3.15;;;;;;;37.53;19.39;94418.56;5070694;28;20052;-50
2022/05/19 09:08:13;;;;;;;5.93;3.20;;;;;;;38.70;18.39;94408.31;5071189;28;20116;-53
2022/05/19 09:11:19;;;;;;;6.65;2.85;;;;;;;38.83;18.21;94415.81;5071381;28;20047;-54
2022/05/19 09:14:03;;;;;;;5.05;3.10;;;;;;;38.05;18.59;94410.13;5070713;28;20471;-48
2022/05/19 09:16:36;;;;;;;7.53;3.03;;;;;;;39.86;17.32;94416.03;5071468;28;20489;-51
2022/05/19 09:19:16;;;;;;;5.05;2.90;;;;;;;40.61;16.30;94414.53;5071991;28;20481;-52
2022/05/19 09:21:45;;;;;;;4.85;2.80;;;;;;;40.07;16.73;94409.78;5070187;28;20710;-52
2022/05/19 09:24:12;;;;;;;5.70;3.17;;;;;;;37.87;19.49;94417.16;5071687;28;20040;-52
2022/05/19 09:26:54;;;;;;;5.90;2.97;;;;;;;38.64;18.35;94410.69;5070703;28;20669;-54
2022/05/19 09:29:29;;;;;;;6.40;2.93;;;;;;;40.13;16.79;94416.00;5071370;28;20048;-55
2022/05/19 09:32:17;;;;;;;5.38;2.75;;;;;;;42.14;15.51;94401.72;5071692;28;20074;-50
2022/05/19 09:34:49;;;;;;;7.45;3.10;;;;;;;40.12;16.94;94417.34;5069123;28;20137;-50
2022/05/19 09:37:44;;;;;;;5.68;2.72;;;;;;;40.86;16.11;94417.13;5071514;28;20055;-51
2022/05/19 09:40:10;;;;;;;5.05;2.83;;;;;;;40.69;16.38;94415.13;5069552;28;21704;-50
2022/05/19 09:43:04;;;;;;;4.77;2.80;;;;;;;40.19;16.63;94413.59;5070289;28;20117;-51
2022/05/19 09:45:47;;;;;;;5.05;2.95;;;;;;;40.63;15.94;94406.03;5070546;28;20078;-50
2022/05/19 09:48:20;;;;;;;7.50;3.00;;;;;;;37.23;19.68;94408.09;5071224;28;20131;-51
2022/05/19 09:50:48;;;;;;;5.03;2.90;;;;;;;39.47;16.77;94392.94;5069975;28;21599;-55
2022/05/19 09:53:25;;;;;;;6.65;3.10;;;;;;;38.75;17.45;94399.44;5071204;28;20402;-51
2022/05/19 09:56:02;;;;;;;6.07;2.90;;;;;;;40.05;16.05;94403.88;5069988;28;20094;-49
2022/05/19 09:58:36;;;;;;;5.47;2.90;;;;;;;38.80;17.53;94406.28;5070588;28;20511;-49
2022/05/19 10:01:08;;;;;;;5.72;3.00;;;;;;;38.68;18.10;94399.56;5071169;28;20117;-54
2022/05/19 10:03:43;;;;;;;6.93;2.92;;;;;;;38.93;16.99;94394.41;5069944;28;20049;-50
2022/05/19 10:06:23;;;;;;;4.93;2.90;;;;;;;39.11;17.08;94391.53;5070867;28;20105;-50
2022/05/19 10:09:00;;;;;;;4.57;2.90;;;;;;;38.64;17.50;94402.09;5069480;28;21642;-49
2022/05/19 10:11:29;;;;;;;6.05;3.10;;;;;;;37.14;19.14;94395.19;5070056;28;20048;-51
2022/05/19 10:14:06;;;;;;;4.60;2.92;;;;;;;38.71;16.97;94386.88;5070282;28;20040;-50
2022/05/19 10:17:10;;;;;;;5.05;3.40;;;;;;;39.34;17.72;94379.69;5069848;28;20414;-51
2022/05/19 10:19:44;;;;;;;7.03;4.18;;;;;;;38.35;18.87;94379.63;5069863;28;20406;-52
2022/05/19 10:22:16;;;;;;;5.97;3.53;;;;;;;38.36;18.80;94384.03;5070378;28;20071;-54
2022/05/19 10:25:01;;;;;;;6.38;3.45;;;;;;;37.82;19.37;94375.22;5069227;28;20627;-51
2022/05/19 10:33:39;;;;;;;8.18;3.15;;;;;;;40.10;16.84;94374.06;5069628;28;20044;-54
2022/05/19 10:36:35;;;;;;;5.87;3.13;;;;;;;39.96;16.96;94365.13;5070541;28;20044;-50
2022/05/19 10:39:01;;;;;;;5.85;3.15;;;;;;;35.80;20.95;94368.97;5069622;28;20086;-48
2022/05/19 10:41:49;;;;;;;6.75;3.50;;;;;;;34.87;22.81;94366.59;5068508;28;20507;-48
2022/05/19 10:44:32;;;;;;;7.47;3.20;;;;;;;34.23;23.88;94357.63;5070234;28;20070;-50
2022/05/19 10:46:59;;;;;;;5.72;3.63;;;;;;;34.29;23.60;94360.28;5068962;28;20113;-52
2022/05/19 10:49:58;;;;;;;8.50;3.47;;;;;;;32.97;23.41;94344.34;5069688;28;20045;-53
2022/05/19 10:52:55;;;;;;;7.10;3.40;;;;;;;33.30;24.13;94361.88;5073732;28;20049;-53
2022/05/19 10:55:33;;;;;;;6.47;3.38;;;;;;;33.25;24.27;94359.22;5069516;28;20045;-52
2022/05/19 10:58:08;;;;;;;4.85;3.38;;;;;;;32.19;24.41;94344.78;5069756;28;20052;-50
2022/05/19 11:00:50;;;;;;;6.65;3.40;;;;;;;31.50;25.00;94351.59;5069565;28;20045;-54
2022/05/19 11:03:20;;;;;;;5.47;3.63;;;;;;;30.76;25.63;94358.44;5069809;28;20055;-51
2022/05/19 11:05:53;;;;;;;7.05;3.65;;;;;;;30.54;26.30;94359.53;5069429;28;20041;-49
2022/05/19 11:08:57;;;;;;;4.80;3.20;;;;;;;30.70;26.39;94354.16;5069563;28;20044;-52
2022/05/19 11:11:27;;;;;;;5.78;3.38;;;;;;;30.51;26.04;94348.53;5069357;28;20044;-53
2022/05/19 11:14:21;;;;;;;6.70;3.58;;;;;;;30.91;25.11;94355.16;5069559;28;20052;-49
2022/05/19 11:17:03;;;;;;;8.77;3.40;;;;;;;30.79;24.94;94351.69;5068485;28;20840;-48
2022/05/19 11:19:35;;;;;;;7.47;3.55;;;;;;;30.18;26.00;94356.16;5069332;28;20117;-50
2022/05/19 11:22:07;;;;;;;5.63;3.40;;;;;;;30.64;25.43;94349.34;5069357;28;20055;-54
2022/05/19 11:27:34;;;;;;;7.65;3.60;;;;;;;30.32;25.67;94349.28;5068992;28;20044;-48
2022/05/19 11:30:08;;;;;;;6.10;3.50;;;;;;;31.01;25.94;94339.25;5069764;28;20040;-51
2022/05/19 11:32:37;;;;;;;7.30;3.40;;;;;;;30.62;25.62;94345.53;5069292;28;20401;-52
2022/05/19 11:35:18;;;;;;;6.40;3.30;;;;;;;30.19;26.28;94332.97;5068320;28;20048;-53
2022/05/19 11:37:55;;;;;;;5.53;3.25;;;;;;;30.45;27.03;94345.78;5068439;28;20644;-47
2022/05/19 11:40:46;;;;;;;6.25;3.97;;;;;;;31.01;26.32;94341.34;5068841;28;20071;-53
2022/05/19 11:43:19;;;;;;;6.47;3.73;;;;;;;30.29;28.00;94346.75;5069666;28;20053;-51
2022/05/19 11:45:58;;;;;;;9.50;4.10;;;;;;;29.99;28.34;94339.94;5068250;28;20312;-52
2022/05/19 11:55:12;;;;;;;10.05;4.55;;;;;;;30.22;29.60;94337.59;5067237;28;21144;-52
2022/05/19 11:57:45;;;;;;;8.50;4.70;;;;;;;30.03;31.97;94348.13;5069091;28;20040;-55
2022/05/19 12:00:19;;;;;;;7.80;4.60;;;;;;;29.94;31.66;94346.44;5069333;28;20050;-53
2022/05/19 12:02:57;;;;;;;7.07;4.50;;;;;;;30.17;32.13;94338.41;5068413;28;20132;-48
2022/05/19 12:05:32;;;;;;;7.82;4.00;;;;;;;29.87;29.03;94333.66;5071617;28;20044;-49
2022/05/19 12:08:11;;;;;;;6.45;4.28;;;;;;;30.54;29.74;94344.63;5073070;28;20456;-52
2022/05/19 12:10:47;;;;;;;7.23;4.57;;;;;;;29.66;32.22;94339.03;5072718;28;20044;-49
2022/05/19 12:13:17;;;;;;;9.63;4.57;;;;;;;30.30;31.00;94331.28;5071715;28;20059;-54
2022/05/19 12:15:57;;;;;;;7.38;4.13;;;;;;;30.45;29.40;94335.22;5071522;28;21539;-53
2022/05/19 12:18:24;;;;;;;6.65;4.15;;;;;;;30.19;29.61;94337.88;5072420;28;20393;-50
2022/05/19 12:21:13;;;;;;;8.85;3.90;;;;;;;29.79;29.63;94337.63;5072422;28;20044;-50